Terminal Aerodrome Forecast
Issued by NWS

Home | Current Version | Previous Version | Text Only | Print | Product List | Glossary On
Versions: 1 2 3 4 5 6 7 8 9 10 11 12 13 14
000
FTUS44 KLIX 212320
TAFMCB
TAF
KMCB 212320Z 2200/2224 00000KT P6SM SKC
     FM220900 00000KT 5SM BR FEW060
      TEMPO 2211/2213 2SM BR
     FM221400 04003KT P6SM FEW025=

USA.gov is the U.S. government's official web portal to all federal, state and local government web resources and services.